Hub


Voltar

 INFORMAÇÕES METEOROLÓGICAS

METAR FOR YBCS


ADDS - METARS form results

(0321 UTC 20 April 2019)
Data provider http://aviationweather.gov/metar/data/
 
METAR text: YBCS 200300Z AUTO 13014KT 9999 // SCT052 28/20 Q1012 RMK RF00.0/000.0 NOSIG
Conditions at: YBCS (CAIRNS AIRPORT , AU) observed 0300 UTC 20 April 2019
Temperature: 28.0°C (82°F)
Dewpoint: 20.0°C (68°F) [RH = 62%]
Pressure (altimeter): 29.88 inches Hg (1012.0 mb)
Winds: from the SE (130 degrees) at 16 MPH (14 knots; 7.2 m/s)
Visibility: 6 or more miles (10+ km)
Ceiling: at least 12,000 feet AGL
Clouds: scattered clouds at 5200 feet AGL
Weather: no significant weather observed at this time

METAR text: YBCS 200230Z AUTO 13019KT 9999 // NCD 29/21 Q1012 RMK RF00.0/000.0 NOSIG
Conditions at: YBCS (CAIRNS AIRPORT , AU) observed 0230 UTC 20 April 2019
Temperature: 29.0°C (84°F)
Dewpoint: 21.0°C (70°F) [RH = 62%]
Pressure (altimeter): 29.88 inches Hg (1012.0 mb)
Winds: from the SE (130 degrees) at 22 MPH (19 knots; 9.8 m/s)
Visibility: 6 or more miles (10+ km)
Ceiling: at least 12,000 feet AGL
Clouds: sky clear below 12,000 feet AGL
Weather: no significant weather observed at this time

Forecast for: YBCS (CAIRNS AIRPORT , AU)
Text: TAF YBCS 192321Z 2000/2024 13014KT 9999 -SHRA SCT028
Forecast period: 0000 UTC 20 April 2019 to 0000 UTC 21 April 2019
Forecast type: FROM: standard forecast or significant change
Winds: from the SE (130 degrees) at 16 MPH (14 knots; 7.2 m/s)
Visibility: 6 or more miles 10+ km)
Ceiling: at least 12,000 feet AGL
Clouds: scattered clouds at 2800 feet AGL
Weather: -SHRA  (light rain showers)


 MAPA DO AEROPORTO


 INFORMAÇÕES DA PISTA

Pista 12 Tamanho da pista 3035 ft Largura da pista 60 ft
Elevação da pista 9 ft Ranhura da pista 0 ft Proa da pista 126
Pista 30 Tamanho da pista 3035 ft Largura da pista 60 ft
Elevação da pista 6 ft Ranhura da pista 0 ft Proa da pista 306
Pista 15 Tamanho da pista 10489 ft Largura da pista 148 ft
Elevação da pista 9 ft Ranhura da pista 0 ft Proa da pista 156
Pista 33 Tamanho da pista 10489 ft Largura da pista 148 ft
Elevação da pista 7 ft Ranhura da pista 0 ft Proa da pista 336

 FREQUÊNCIAS DO AEROPORTO

Tipo A/D Nome APP/DEP Frequência 118.4 MHZ
Tipo ATIS Nome ATIS Frequência 113 MHZ
Tipo CLD Nome CLNC DEL Frequência 121.7 MHZ
Tipo GND Nome GND Frequência 121.7 MHZ
Tipo TWR Nome TWR Frequência 124.9 MHZ

 AUXÍLIOS DE NAVEGAÇÃO PRÓXIMOS AO AEROPORTO

Tipo VOR-DME Nome Cairns Frequência 113000 KHZ
Tipo NDB Nome Cairns Frequência 364 KHZ